createdAt,value
2023-02-13T00:02:50.009Z,9.5
2023-02-13T00:07:57.316Z,9.5
2023-02-13T00:13:02.399Z,9.5
2023-02-13T00:18:08.608Z,9.5
2023-02-13T00:23:13.853Z,9.4
2023-02-13T00:28:20.099Z,9.5
2023-02-13T00:33:26.244Z,9.4
2023-02-13T00:38:32.444Z,9.4
2023-02-13T00:43:38.663Z,9.4
2023-02-13T00:53:51.064Z,9.4
2023-02-13T00:58:56.294Z,9.4
2023-02-13T01:04:02.619Z,9.4
2023-02-13T01:09:08.728Z,9.4
2023-02-13T01:14:14.926Z,9.4
2023-02-13T01:19:21.138Z,9.4
2023-02-13T01:24:27.337Z,9.4
2023-02-13T01:29:33.551Z,9.4
2023-02-13T01:34:39.757Z,9.3
2023-02-13T01:39:45.965Z,9.4
2023-02-13T01:44:52.186Z,9.4
2023-02-13T01:49:58.368Z,9.3
2023-02-13T01:55:04.592Z,9.4
2023-02-13T02:00:10.837Z,9.4
2023-02-13T02:05:17.045Z,9.4
2023-02-13T02:10:23.200Z,9.4
2023-02-13T02:15:29.414Z,9.4
2023-02-13T02:20:35.621Z,9.3
2023-02-13T02:25:41.834Z,9.3
2023-02-13T02:30:48.075Z,9.4
2023-02-13T02:35:54.251Z,9.3
2023-02-13T02:41:00.601Z,9.3
2023-02-13T02:46:06.656Z,9.3
2023-02-13T02:51:12.866Z,9.3
2023-02-13T02:56:19.088Z,9.3
2023-02-13T03:01:25.275Z,9.3
2023-02-13T03:06:31.486Z,9.3
2023-02-13T03:11:37.697Z,9.3
2023-02-13T03:16:43.942Z,9.3
2023-02-13T03:21:50.105Z,9.2
2023-02-13T03:26:56.321Z,9.2
2023-02-13T03:32:02.519Z,9.1
2023-02-13T03:42:14.948Z,9.0
2023-02-13T03:47:21.424Z,9.0
2023-02-13T03:52:27.362Z,8.9
2023-02-13T03:57:33.565Z,8.9
2023-02-13T04:02:39.770Z,8.8
2023-02-13T04:07:45.978Z,8.7
2023-02-13T04:12:52.183Z,8.6
2023-02-13T04:17:58.409Z,8.5
2023-02-13T04:23:04.625Z,8.5
2023-02-13T04:28:10.837Z,8.4
2023-02-13T04:33:17.013Z,8.3
2023-02-13T04:38:23.223Z,8.2
2023-02-13T04:43:29.431Z,8.1
2023-02-13T04:48:37.245Z,8.0
2023-02-13T04:53:41.856Z,7.9
2023-02-13T04:58:48.055Z,7.8
2023-02-13T05:03:54.329Z,7.7
2023-02-13T05:09:00.486Z,7.7
2023-02-13T05:14:06.674Z,7.5
2023-02-13T05:19:12.876Z,7.5
2023-02-13T05:24:20.534Z,7.4
2023-02-13T05:29:25.302Z,7.4
2023-02-13T05:34:31.509Z,7.3
2023-02-13T05:39:37.718Z,7.3
2023-02-13T05:44:43.929Z,7.3
2023-02-13T05:49:50.126Z,7.2
2023-02-13T05:54:56.368Z,7.1
2023-02-13T06:00:02.546Z,7.1
2023-02-13T06:05:08.754Z,7.0
2023-02-13T06:10:14.973Z,6.9
2023-02-13T06:15:21.166Z,6.9
2023-02-13T06:20:27.370Z,6.8
2023-02-13T06:25:33.581Z,6.7
2023-02-13T06:30:38.884Z,6.6
2023-02-13T06:35:45.015Z,6.5
2023-02-13T06:40:51.228Z,6.5
2023-02-13T06:45:57.423Z,6.4
2023-02-13T06:51:03.634Z,6.3
2023-02-13T06:56:09.862Z,6.2
2023-02-13T07:01:16.129Z,6.1
2023-02-13T07:06:22.345Z,6.0
2023-02-13T07:11:28.461Z,6.0
2023-02-13T07:16:34.726Z,5.9
2023-02-13T07:21:40.891Z,5.9
2023-02-13T07:26:47.083Z,5.9
2023-02-13T07:31:53.361Z,5.9
2023-02-13T07:36:59.496Z,5.9
2023-02-13T07:42:05.704Z,5.8
2023-02-13T07:47:11.922Z,5.8
2023-02-13T07:52:18.136Z,5.8
2023-02-13T07:57:24.341Z,5.9
2023-02-13T08:02:30.540Z,5.9
2023-02-13T08:07:36.752Z,5.9
2023-02-13T08:12:42.957Z,6.0
2023-02-13T08:17:49.197Z,6.1
2023-02-13T08:22:55.362Z,6.2
2023-02-13T08:28:01.660Z,6.3
2023-02-13T08:33:07.801Z,6.5
2023-02-13T08:38:13.987Z,6.6
2023-02-13T08:43:20.194Z,6.8
2023-02-13T08:48:26.399Z,7.0
2023-02-13T08:53:32.610Z,7.1
2023-02-13T08:58:38.833Z,7.3
2023-02-13T09:03:45.022Z,7.5
2023-02-13T09:08:51.238Z,7.7
2023-02-13T09:13:57.438Z,7.9
2023-02-13T09:19:03.654Z,8.1
2023-02-13T09:24:09.862Z,8.3
2023-02-13T09:29:16.064Z,8.5
2023-02-13T09:34:22.277Z,8.7
2023-02-13T09:39:28.487Z,9.0
2023-02-13T09:44:34.718Z,9.2
2023-02-13T09:49:40.897Z,9.3
2023-02-13T09:54:47.112Z,9.5
2023-02-13T09:59:53.316Z,9.7
2023-02-13T10:04:59.604Z,9.8
2023-02-13T10:10:05.727Z,10.0
2023-02-13T10:15:11.941Z,10.2
2023-02-13T10:20:18.145Z,10.3
2023-02-13T10:25:24.350Z,10.5
2023-02-13T10:30:30.560Z,10.6
2023-02-13T10:35:36.776Z,10.8
2023-02-13T10:40:42.980Z,10.9
2023-02-13T10:45:49.184Z,11.1
2023-02-13T10:50:55.390Z,11.3
2023-02-13T10:56:01.703Z,11.5
2023-02-13T11:01:07.804Z,11.6
2023-02-13T11:06:14.029Z,11.8
2023-02-13T11:11:20.231Z,11.9
2023-02-13T11:16:26.475Z,12.0
2023-02-13T11:21:32.675Z,12.2
2023-02-13T11:26:38.852Z,12.3
2023-02-13T11:31:45.343Z,12.4
2023-02-13T11:36:51.262Z,12.6
2023-02-13T11:41:57.475Z,12.8
2023-02-13T11:47:03.730Z,12.9
2023-02-13T11:52:09.883Z,13.0
2023-02-13T11:57:16.107Z,13.1
2023-02-13T12:02:21.351Z,13.2
2023-02-13T12:07:27.536Z,13.3
2023-02-13T12:12:33.742Z,13.5
2023-02-13T12:17:39.939Z,13.6
2023-02-13T12:22:46.159Z,13.7
2023-02-13T12:27:52.363Z,13.8
2023-02-13T12:32:58.569Z,13.9
2023-02-13T12:38:04.787Z,14.0
2023-02-13T12:43:10.983Z,14.1
2023-02-13T12:48:17.266Z,14.2
2023-02-13T12:53:23.422Z,14.3
2023-02-13T12:58:29.646Z,14.4
2023-02-13T13:03:35.859Z,14.5
2023-02-13T13:08:42.064Z,14.6
2023-02-13T13:13:48.270Z,14.7
2023-02-13T13:18:54.483Z,14.8
2023-02-13T13:24:00.712Z,14.9
2023-02-13T13:29:06.924Z,15.0
2023-02-13T13:34:13.154Z,15.1
2023-02-13T13:39:19.347Z,15.2
2023-02-13T13:44:25.556Z,15.3
2023-02-13T13:49:31.768Z,15.4
2023-02-13T13:54:37.985Z,15.5
2023-02-13T13:59:44.186Z,15.6
2023-02-13T14:04:50.401Z,15.7
2023-02-13T14:09:56.634Z,15.7
2023-02-13T14:15:02.861Z,15.7
2023-02-13T14:20:09.064Z,15.8
2023-02-13T14:25:15.609Z,15.8
2023-02-13T14:30:21.485Z,15.8
2023-02-13T14:35:27.660Z,15.8
2023-02-13T14:40:33.876Z,15.8
2023-02-13T14:45:40.074Z,15.8
2023-02-13T14:50:46.296Z,15.8
2023-02-13T14:55:52.494Z,15.8
2023-02-13T15:00:59.089Z,15.8
2023-02-13T15:06:04.927Z,15.8
2023-02-13T15:11:11.141Z,15.7
2023-02-13T15:16:17.377Z,15.7
2023-02-13T15:21:23.545Z,15.7
2023-02-13T15:26:29.749Z,15.7
2023-02-13T15:31:36.056Z,15.7
2023-02-13T15:36:42.173Z,15.7
2023-02-13T15:41:48.394Z,15.7
2023-02-13T15:46:54.608Z,15.7
2023-02-13T15:52:00.823Z,15.6
2023-02-13T15:57:07.171Z,15.6
2023-02-13T16:02:13.303Z,15.5
2023-02-13T16:07:19.452Z,15.4
2023-02-13T16:12:25.669Z,15.3
2023-02-13T16:17:31.889Z,15.2
2023-02-13T16:22:38.100Z,15.1
2023-02-13T16:27:44.321Z,14.9
2023-02-13T16:32:50.702Z,14.8
2023-02-13T16:37:57.023Z,14.6
2023-02-13T16:43:03.155Z,14.4
2023-02-13T16:48:09.411Z,14.3
2023-02-13T16:53:15.607Z,14.1
2023-02-13T16:58:21.698Z,13.9
2023-02-13T17:03:27.949Z,13.8
2023-02-13T17:08:34.286Z,13.6
2023-02-13T17:13:42.042Z,13.4
2023-02-13T17:18:46.574Z,13.3
2023-02-13T17:23:52.875Z,13.1
2023-02-13T17:28:59.003Z,12.8
2023-02-13T17:34:04.378Z,12.6
2023-02-13T17:39:10.455Z,12.4
2023-02-13T17:44:16.663Z,12.3
2023-02-13T17:49:22.807Z,12.1
2023-02-13T17:54:28.888Z,11.9
2023-02-13T17:59:35.117Z,11.7
2023-02-13T18:04:40.358Z,11.6
2023-02-13T18:09:46.530Z,11.5
2023-02-13T18:14:52.731Z,11.4
2023-02-13T18:19:59.008Z,11.3
2023-02-13T18:25:05.159Z,11.2
2023-02-13T18:30:11.378Z,11.1
2023-02-13T18:35:17.579Z,11.0
2023-02-13T18:40:23.778Z,11.0
2023-02-13T18:45:29.992Z,10.9
2023-02-13T18:50:36.203Z,10.8
2023-02-13T18:55:42.428Z,10.6
2023-02-13T19:00:48.615Z,10.5
2023-02-13T19:05:54.824Z,10.4
2023-02-13T19:11:01.034Z,10.3
2023-02-13T19:16:07.274Z,10.1
2023-02-13T19:21:13.449Z,9.9
2023-02-13T19:26:19.650Z,9.8
2023-02-13T19:31:26.025Z,9.7
2023-02-13T19:36:32.072Z,9.6
2023-02-13T19:41:38.280Z,9.6
2023-02-13T19:46:44.527Z,9.4
2023-02-13T19:51:50.712Z,9.3
2023-02-13T19:56:56.910Z,9.2
2023-02-13T20:02:03.167Z,9.0
2023-02-13T20:07:09.332Z,8.9
2023-02-13T20:12:15.529Z,8.8
2023-02-13T20:17:21.736Z,8.6
2023-02-13T20:22:27.936Z,8.5
2023-02-13T20:27:34.148Z,8.4
2023-02-13T20:32:40.351Z,8.3
2023-02-13T20:42:52.775Z,8.1
2023-02-13T20:47:59.021Z,8.0
2023-02-13T20:53:05.183Z,7.9
2023-02-13T20:58:11.394Z,7.8
2023-02-13T21:03:17.600Z,7.7
2023-02-13T21:08:23.802Z,7.6
2023-02-13T21:13:30.029Z,7.5
2023-02-13T21:18:36.227Z,7.5
2023-02-13T21:23:42.441Z,7.3
2023-02-13T21:28:48.683Z,7.2
2023-02-13T21:33:54.842Z,7.2
2023-02-13T21:39:01.050Z,7.1
2023-02-13T21:44:07.275Z,7.0
2023-02-13T21:49:13.469Z,6.9
2023-02-13T21:54:19.694Z,6.8
2023-02-13T21:59:25.888Z,6.7
2023-02-13T22:04:32.117Z,6.7
2023-02-13T22:09:38.306Z,6.6
2023-02-13T22:14:44.511Z,6.6
2023-02-13T22:19:50.734Z,6.6
2023-02-13T22:24:56.925Z,6.5
2023-02-13T22:30:03.223Z,6.5
2023-02-13T22:35:09.350Z,6.5
2023-02-13T22:40:15.557Z,6.4
2023-02-13T22:45:21.765Z,6.4
2023-02-13T22:50:27.963Z,6.3
2023-02-13T22:55:34.164Z,6.2
2023-02-13T23:00:40.370Z,6.2
2023-02-13T23:05:46.579Z,6.1
2023-02-13T23:10:52.810Z,6.1
2023-02-13T23:15:59.022Z,6.1
2023-02-13T23:21:05.199Z,6.0
2023-02-13T23:26:11.407Z,6.0
2023-02-13T23:31:17.733Z,5.9
2023-02-13T23:36:22.834Z,5.8
2023-02-13T23:41:29.054Z,5.8
2023-02-13T23:46:35.331Z,5.8
2023-02-13T23:51:41.501Z,5.7
2023-02-13T23:56:47.686Z,5.7
